Lubbock Preston Smith International Airport Lubbock US
ICAO: KLBB
IATA: LBB
Category: Large
Scheduled Services: Yes

Elevation: 3282 ft
TransAlt. 18000 ft.

Airport Communications:
APP:119.2
ATIS:125.3
CLNC DEL:125.8
DEP:119.2
GND:121.9
FORT WORTH RDO:122.55
TWR:120.5
UNICOM:122.95

KLBB Zoom In..

If you have problems with the map follow the link
https://www.worldairports.se/pages/airport.php?
ICAO=KLBB

Runways:

(A) RW 08 length 8003 ft width 150 ft
---- / hdg 81

(B) RW 17L length 2891 ft width 75 ft
---- / hdg 171

(C) RW 17R length 11500 ft width 150 ft
ILS 111.70 / hdg 171

(D) RW 26 length 8003 ft width 150 ft
ILS 111.90 / hdg 261

(E) RW 35L length 11500 ft width 150 ft
---- / hdg 351

(F) RW 35R length 2891 ft width 75 ft
---- / hdg 351

Location; KLBB
Day. 08 / Time. 17.53 Zulu
* Altimeter: 29.87
* Temperature: 20° c. 68°f.
* Wind from: 260° Speed 21 kn with Gusts up to 30 kn.
Dewpoint: 04° c.
Visibility: 10 Statute Miles.
Clouds: Few 16000 ft.
Clouds: Broken 21000 ft.
Clouds: Overcast 26000 ft.

KLBB 081753Z 26021G30KT 10SM FEW160 BKN210 OVC260 20/04 A2987 RMK AO2 PK WND 28030/1744 SLP082 T02000039 10200 20078 58014


Wind From 260°
Speed 21 kn.

 
 
jpsmedia worldairports.se 2019   terms of use